createdAt,value
2022-09-17T00:02:11.491Z,10.34
2022-09-17T00:04:37.853Z,10.37
2022-09-17T00:07:04.205Z,10.28
2022-09-17T00:09:30.512Z,10.33
2022-09-17T00:11:56.892Z,10.36
2022-09-17T00:14:23.198Z,10.43
2022-09-17T00:16:49.547Z,10.42
2022-09-17T00:19:20.674Z,10.48
2022-09-17T00:21:47.551Z,10.48
2022-09-17T00:24:15.382Z,10.54
2022-09-17T00:26:42.314Z,10.53
2022-09-17T00:29:09.889Z,10.50
2022-09-17T00:31:37.355Z,10.62
2022-09-17T00:34:04.841Z,10.56
2022-09-17T00:36:33.907Z,10.55
2022-09-17T00:39:00.644Z,10.58
2022-09-17T00:41:30.304Z,10.50
2022-09-17T00:44:01.910Z,10.54
2022-09-17T00:46:44.453Z,10.50
2022-09-17T00:49:16.491Z,10.47
2022-09-17T00:51:49.399Z,10.43
2022-09-17T00:54:16.041Z,10.42
2022-09-17T00:56:43.254Z,10.36
2022-09-17T00:59:10.184Z,10.35
2022-09-17T01:01:37.051Z,10.32
2022-09-17T01:04:03.992Z,10.22
2022-09-17T01:06:53.200Z,10.24
2022-09-17T01:09:37.993Z,10.20
2022-09-17T01:12:28.529Z,10.19
2022-09-17T01:15:18.687Z,10.15
2022-09-17T01:18:03.958Z,10.09
2022-09-17T01:20:59.633Z,10.01
2022-09-17T01:23:50.076Z,9.95
2022-09-17T01:27:01.036Z,9.91
2022-09-17T01:29:48.648Z,9.87
2022-09-17T01:32:31.706Z,9.71
2022-09-17T01:35:20.820Z,9.82
2022-09-17T01:38:28.387Z,9.74
2022-09-17T01:41:05.743Z,9.79
2022-09-17T01:43:54.651Z,9.82
2022-09-17T01:46:32.217Z,9.77
2022-09-17T01:49:02.487Z,9.87
2022-09-17T01:51:36.043Z,9.82
2022-09-17T01:54:28.048Z,9.90
2022-09-17T01:56:54.315Z,9.90
2022-09-17T01:59:34.773Z,9.89
2022-09-17T02:02:14.049Z,9.95
2022-09-17T02:04:58.428Z,9.99
2022-09-17T02:07:25.458Z,10.01
2022-09-17T02:10:07.809Z,9.96
2022-09-17T02:12:39.531Z,10.06
2022-09-17T02:15:12.730Z,10.01
2022-09-17T02:17:47.852Z,10.01
2022-09-17T02:20:17.692Z,9.99
2022-09-17T02:22:55.690Z,10.05
2022-09-17T02:25:33.661Z,10.06
2022-09-17T02:28:33.554Z,10.08
2022-09-17T02:30:59.972Z,10.10
2022-09-17T02:33:27.492Z,10.08
2022-09-17T02:35:54.052Z,10.16
2022-09-17T02:38:28.767Z,10.17
2022-09-17T02:41:08.383Z,10.12
2022-09-17T02:44:24.497Z,10.21
2022-09-17T02:47:06.067Z,10.23
2022-09-17T02:49:59.811Z,10.24
2022-09-17T02:52:42.823Z,10.19
2022-09-17T02:55:37.095Z,10.23
2022-09-17T02:58:28.083Z,10.19
2022-09-17T03:01:00.155Z,10.13
2022-09-17T03:03:31.616Z,10.16
2022-09-17T03:05:58.699Z,10.07
2022-09-17T03:08:30.063Z,9.96
2022-09-17T03:10:56.408Z,10.03
2022-09-17T03:13:22.843Z,9.98
2022-09-17T03:15:49.437Z,9.91
2022-09-17T03:18:15.775Z,9.79
2022-09-17T03:20:42.128Z,9.76
2022-09-17T03:23:08.523Z,9.70
2022-09-17T03:25:34.888Z,9.68
2022-09-17T03:28:01.416Z,9.53
2022-09-17T03:30:27.742Z,9.63
2022-09-17T03:32:54.061Z,9.62
2022-09-17T03:35:20.403Z,9.57
2022-09-17T03:37:46.704Z,9.56
2022-09-17T03:40:13.682Z,9.71
2022-09-17T03:42:40.085Z,9.73
2022-09-17T03:45:07.131Z,9.78
2022-09-17T03:47:33.442Z,9.80
2022-09-17T03:49:59.785Z,9.82
2022-09-17T03:52:26.117Z,9.77
2022-09-17T03:54:52.431Z,9.76
2022-09-17T03:57:18.757Z,9.74
2022-09-17T03:59:45.066Z,9.79
2022-09-17T04:02:11.473Z,9.78
2022-09-17T04:04:37.908Z,9.72
2022-09-17T04:07:05.246Z,9.69
2022-09-17T04:09:33.290Z,9.81
2022-09-17T04:12:01.795Z,9.84
2022-09-17T04:14:28.161Z,9.84
2022-09-17T04:16:54.471Z,9.85
2022-09-17T04:19:20.792Z,9.81
2022-09-17T04:21:47.120Z,9.83
2022-09-17T04:24:13.447Z,9.83
2022-09-17T04:26:39.774Z,9.85
2022-09-17T04:29:06.088Z,9.80
2022-09-17T04:31:32.473Z,9.86
2022-09-17T04:33:58.896Z,9.82
2022-09-17T04:36:25.369Z,9.78
2022-09-17T04:38:51.811Z,9.86
2022-09-17T04:41:18.134Z,9.89
2022-09-17T04:43:44.436Z,9.76
2022-09-17T04:46:10.995Z,9.86
2022-09-17T04:48:37.843Z,9.85
2022-09-17T04:51:04.343Z,9.77
2022-09-17T04:53:30.716Z,9.76
2022-09-17T04:55:57.018Z,9.73
2022-09-17T04:58:23.433Z,9.74
2022-09-17T05:00:49.929Z,9.81
2022-09-17T05:03:16.300Z,9.83
2022-09-17T05:05:42.595Z,9.82
2022-09-17T05:08:08.992Z,9.82
2022-09-17T05:10:35.324Z,9.71
2022-09-17T05:13:01.639Z,9.78
2022-09-17T05:15:28.173Z,9.75
2022-09-17T05:17:54.476Z,9.71
2022-09-17T05:20:21.041Z,9.67
2022-09-17T05:22:49.443Z,9.56
2022-09-17T05:25:18.280Z,9.59
2022-09-17T05:27:45.120Z,9.56
2022-09-17T05:30:11.787Z,9.45
2022-09-17T05:32:38.098Z,9.49
2022-09-17T05:35:06.012Z,9.46
2022-09-17T05:37:32.741Z,9.47
2022-09-17T05:39:59.130Z,9.49
2022-09-17T05:42:25.512Z,9.64
2022-09-17T05:44:51.897Z,9.98
2022-09-17T05:47:18.215Z,10.25
2022-09-17T05:49:44.556Z,10.55
2022-09-17T05:52:10.899Z,10.98
2022-09-17T05:54:37.207Z,11.29
2022-09-17T05:57:03.678Z,11.66
2022-09-17T05:59:30.021Z,12.14
2022-09-17T06:01:56.456Z,12.46
2022-09-17T06:04:22.767Z,12.62
2022-09-17T06:06:49.149Z,12.53
2022-09-17T06:09:15.565Z,12.44
2022-09-17T06:11:41.887Z,12.25
2022-09-17T06:14:09.077Z,12.07
2022-09-17T06:16:35.692Z,11.93
2022-09-17T06:19:02.013Z,11.72
2022-09-17T06:21:28.333Z,11.73
2022-09-17T06:23:54.645Z,11.64
2022-09-17T06:26:20.997Z,11.49
2022-09-17T06:28:47.320Z,11.66
2022-09-17T06:31:14.100Z,12.27
2022-09-17T06:33:40.698Z,13.02
2022-09-17T06:36:13.756Z,14.10
2022-09-17T06:38:41.806Z,15.12
2022-09-17T06:41:08.464Z,16.17
2022-09-17T06:43:34.810Z,17.09
2022-09-17T06:46:03.324Z,17.90
2022-09-17T06:48:30.554Z,18.27
2022-09-17T06:51:02.309Z,18.19
2022-09-17T06:53:28.574Z,17.66
2022-09-17T06:55:57.505Z,17.37
2022-09-17T06:58:24.063Z,17.28
2022-09-17T07:00:50.513Z,17.51
2022-09-17T07:03:21.180Z,18.04
2022-09-17T07:05:49.431Z,18.67
2022-09-17T07:08:15.745Z,19.32
2022-09-17T07:10:42.064Z,19.92
2022-09-17T07:13:08.394Z,20.48
2022-09-17T07:15:34.715Z,21.03
2022-09-17T07:18:08.578Z,21.57
2022-09-17T07:20:34.907Z,21.94
2022-09-17T07:23:01.403Z,22.38
2022-09-17T07:25:27.781Z,22.68
2022-09-17T07:27:54.594Z,23.04
2022-09-17T07:30:21.444Z,23.27
2022-09-17T07:32:47.967Z,23.62
2022-09-17T07:35:14.291Z,23.86
2022-09-17T07:37:40.663Z,24.19
2022-09-17T07:40:07.910Z,24.47
2022-09-17T07:42:34.770Z,24.66
2022-09-17T07:45:02.140Z,24.64
2022-09-17T07:47:28.928Z,24.38
2022-09-17T07:49:55.240Z,23.74
2022-09-17T07:52:21.552Z,22.79
2022-09-17T07:54:47.910Z,21.82
2022-09-17T07:57:14.257Z,21.01
2022-09-17T07:59:40.567Z,20.48
2022-09-17T08:02:12.606Z,20.49
2022-09-17T08:04:38.983Z,20.57
2022-09-17T08:07:05.312Z,21.07
2022-09-17T08:09:31.667Z,21.43
2022-09-17T08:11:58.038Z,21.88
2022-09-17T08:14:29.136Z,22.31
2022-09-17T08:16:56.565Z,22.82
2022-09-17T08:19:22.881Z,23.20
2022-09-17T08:21:49.233Z,23.48
2022-09-17T08:24:15.546Z,23.68
2022-09-17T08:26:41.877Z,23.52
2022-09-17T08:29:08.225Z,23.14
2022-09-17T08:31:34.696Z,22.52
2022-09-17T08:34:01.054Z,21.82
2022-09-17T08:36:27.405Z,21.11
2022-09-17T08:38:54.886Z,20.58
2022-09-17T08:41:49.202Z,20.39
2022-09-17T08:44:27.678Z,20.04
2022-09-17T08:47:24.724Z,19.57
2022-09-17T08:49:55.055Z,18.66
2022-09-17T08:52:24.020Z,17.94
2022-09-17T08:55:26.885Z,17.14
2022-09-17T08:58:21.873Z,16.50
2022-09-17T09:01:15.355Z,16.62
2022-09-17T09:04:15.538Z,17.20
2022-09-17T09:06:50.511Z,17.57
2022-09-17T09:09:19.969Z,18.11
2022-09-17T09:11:49.194Z,18.69
2022-09-17T09:14:27.337Z,19.13
2022-09-17T09:16:56.674Z,19.22
2022-09-17T09:19:25.994Z,19.37
2022-09-17T09:22:06.061Z,19.58
2022-09-17T09:24:47.438Z,18.84
2022-09-17T09:27:19.022Z,18.45
2022-09-17T09:30:01.748Z,18.28
2022-09-17T09:32:34.170Z,18.26
2022-09-17T09:35:12.260Z,18.34
2022-09-17T09:37:42.306Z,18.58
2022-09-17T09:40:33.571Z,19.00
2022-09-17T09:43:04.124Z,19.19
2022-09-17T09:46:01.586Z,18.91
2022-09-17T09:48:36.242Z,18.80
2022-09-17T09:51:14.247Z,18.78
2022-09-17T09:53:59.194Z,18.43
2022-09-17T09:56:34.927Z,18.40
2022-09-17T09:59:01.444Z,17.90
2022-09-17T10:01:29.887Z,17.39
2022-09-17T10:03:56.295Z,17.49
2022-09-17T10:06:22.697Z,17.45
2022-09-17T10:08:54.915Z,17.33
2022-09-17T10:11:27.411Z,16.85
2022-09-17T10:14:13.667Z,16.46
2022-09-17T10:16:40.028Z,16.01
2022-09-17T10:19:06.632Z,15.85
2022-09-17T10:21:38.447Z,15.48
2022-09-17T10:24:30.001Z,15.69
2022-09-17T10:27:18.196Z,16.26
2022-09-17T10:29:46.543Z,16.79
2022-09-17T10:32:18.152Z,17.22
2022-09-17T10:35:02.484Z,17.66
2022-09-17T10:37:46.666Z,18.10
2022-09-17T10:40:19.036Z,18.34
2022-09-17T10:43:12.151Z,18.54
2022-09-17T10:45:42.151Z,18.73
2022-09-17T10:48:16.596Z,18.80
2022-09-17T10:50:48.539Z,18.83
2022-09-17T10:53:17.587Z,18.76
2022-09-17T10:55:56.813Z,18.34
2022-09-17T10:58:43.808Z,17.60
2022-09-17T11:01:48.415Z,16.83
2022-09-17T11:04:20.750Z,16.21
2022-09-17T11:07:30.175Z,15.81
2022-09-17T11:10:25.079Z,15.60
2022-09-17T11:13:23.405Z,15.69
2022-09-17T11:16:10.709Z,15.97
2022-09-17T11:18:43.027Z,16.28
2022-09-17T11:21:35.879Z,16.71
2022-09-17T11:24:32.867Z,17.04
2022-09-17T11:27:29.047Z,17.26
2022-09-17T11:30:03.844Z,17.49
2022-09-17T11:33:11.882Z,17.48
2022-09-17T11:35:47.853Z,17.00
2022-09-17T11:38:28.435Z,16.29
2022-09-17T11:41:06.583Z,15.63
2022-09-17T11:43:36.513Z,14.95
2022-09-17T11:46:05.392Z,14.59
2022-09-17T11:49:07.394Z,14.40
2022-09-17T11:51:43.207Z,14.46
2022-09-17T11:54:33.667Z,14.79
2022-09-17T11:57:09.764Z,15.08
2022-09-17T11:59:56.601Z,15.22
2022-09-17T12:02:41.650Z,15.54
2022-09-17T12:05:19.134Z,15.73
2022-09-17T12:07:53.085Z,15.66
2022-09-17T12:10:42.895Z,14.55
2022-09-17T12:13:38.659Z,14.16
2022-09-17T12:16:13.622Z,13.72
2022-09-17T12:18:49.523Z,13.48
2022-09-17T12:21:21.017Z,13.27
2022-09-17T12:23:53.956Z,13.24
2022-09-17T12:26:29.354Z,13.41
2022-09-17T12:29:03.693Z,13.45
2022-09-17T12:31:44.996Z,13.73
2022-09-17T12:34:33.905Z,13.82
2022-09-17T12:37:08.653Z,14.03
2022-09-17T12:39:45.078Z,14.41
2022-09-17T12:42:34.361Z,14.59
2022-09-17T12:45:15.886Z,14.32
2022-09-17T12:47:48.327Z,14.45
2022-09-17T12:50:36.449Z,14.53
2022-09-17T12:53:34.993Z,14.28
2022-09-17T12:56:35.141Z,14.38
2022-09-17T12:59:13.286Z,14.39
2022-09-17T13:01:55.801Z,14.55
2022-09-17T13:05:01.113Z,14.53
2022-09-17T13:07:50.639Z,14.75
2022-09-17T13:10:26.216Z,14.84
2022-09-17T13:13:11.387Z,14.74
2022-09-17T13:15:52.197Z,14.55
2022-09-17T13:18:34.543Z,14.63
2022-09-17T13:21:06.649Z,14.64
2022-09-17T13:23:42.362Z,15.00
2022-09-17T13:26:10.565Z,15.29
2022-09-17T13:28:38.204Z,15.56
2022-09-17T13:31:04.950Z,15.58
2022-09-17T13:33:57.328Z,15.02
2022-09-17T13:36:32.898Z,14.23
2022-09-17T13:39:01.137Z,13.82
2022-09-17T13:41:29.785Z,13.67
2022-09-17T13:43:56.441Z,13.28
2022-09-17T13:46:25.076Z,12.88
2022-09-17T13:48:59.724Z,13.01
2022-09-17T13:51:31.841Z,12.89
2022-09-17T13:54:02.738Z,12.81
2022-09-17T13:56:36.919Z,13.03
2022-09-17T13:59:15.295Z,13.22
2022-09-17T14:02:01.866Z,13.57
2022-09-17T14:04:40.325Z,13.83
2022-09-17T14:07:33.434Z,14.09
2022-09-17T14:10:01.066Z,14.36
2022-09-17T14:12:39.346Z,14.35
2022-09-17T14:15:40.628Z,14.32
2022-09-17T14:18:28.992Z,14.22
2022-09-17T14:21:34.464Z,14.10
2022-09-17T14:24:04.432Z,14.09
2022-09-17T14:26:39.794Z,14.18
2022-09-17T14:29:21.880Z,14.22
2022-09-17T14:31:48.469Z,14.12
2022-09-17T14:34:22.052Z,13.91
2022-09-17T14:36:50.738Z,13.84
2022-09-17T14:39:29.516Z,13.92
2022-09-17T14:41:56.121Z,13.94
2022-09-17T14:44:27.124Z,14.11
2022-09-17T14:47:03.830Z,14.29
2022-09-17T14:49:37.586Z,14.41
2022-09-17T14:52:24.711Z,14.25
2022-09-17T14:55:11.270Z,14.07
2022-09-17T14:57:38.063Z,13.39
2022-09-17T15:00:07.691Z,12.78
2022-09-17T15:02:42.254Z,12.40
2022-09-17T15:05:30.014Z,12.42
2022-09-17T15:08:17.476Z,12.44
2022-09-17T15:11:00.947Z,12.39
2022-09-17T15:13:42.510Z,12.30
2022-09-17T15:16:26.385Z,12.55
2022-09-17T15:18:55.553Z,12.64
2022-09-17T15:21:44.445Z,12.88
2022-09-17T15:24:18.673Z,13.00
2022-09-17T15:26:49.281Z,13.15
2022-09-17T15:29:15.724Z,13.17
2022-09-17T15:31:42.183Z,13.20
2022-09-17T15:34:11.324Z,13.14
2022-09-17T15:36:38.019Z,13.19
2022-09-17T15:39:31.368Z,13.30
2022-09-17T15:41:57.931Z,13.34
2022-09-17T15:44:30.746Z,13.38
2022-09-17T15:47:36.076Z,13.55
2022-09-17T15:50:22.229Z,13.74
2022-09-17T15:52:49.739Z,13.81
2022-09-17T15:55:32.915Z,13.76
2022-09-17T15:58:00.000Z,13.87
2022-09-17T16:00:26.781Z,13.90
2022-09-17T16:02:54.089Z,13.90
2022-09-17T16:05:23.226Z,13.96
2022-09-17T16:07:49.617Z,13.92
2022-09-17T16:10:16.068Z,14.00
2022-09-17T16:12:42.468Z,13.81
2022-09-17T16:15:09.407Z,13.67
2022-09-17T16:17:46.656Z,13.56
2022-09-17T16:20:17.329Z,13.52
2022-09-17T16:22:44.872Z,13.33
2022-09-17T16:25:11.786Z,13.41
2022-09-17T16:28:09.486Z,13.33
2022-09-17T16:30:36.234Z,13.40
2022-09-17T16:33:02.556Z,13.23
2022-09-17T16:35:29.056Z,13.29
2022-09-17T16:37:56.553Z,13.35
2022-09-17T16:40:24.829Z,13.39
2022-09-17T16:42:51.226Z,13.41
2022-09-17T16:45:17.584Z,13.35
2022-09-17T16:47:43.964Z,13.33
2022-09-17T16:50:13.528Z,13.22
2022-09-17T16:52:40.205Z,13.26
2022-09-17T16:55:07.134Z,13.32
2022-09-17T16:57:34.134Z,13.30
2022-09-17T17:00:00.732Z,13.29
2022-09-17T17:02:27.096Z,13.16
2022-09-17T17:04:53.455Z,13.18
2022-09-17T17:07:19.954Z,13.12
2022-09-17T17:09:46.278Z,13.13
2022-09-17T17:12:12.669Z,13.07
2022-09-17T17:14:39.031Z,12.92
2022-09-17T17:17:05.388Z,12.97
2022-09-17T17:19:31.712Z,12.89
2022-09-17T17:21:58.064Z,12.78
2022-09-17T17:24:24.354Z,12.61
2022-09-17T17:26:50.712Z,12.54
2022-09-17T17:29:17.111Z,12.46
2022-09-17T17:31:43.492Z,12.31
2022-09-17T17:34:09.860Z,12.19
2022-09-17T17:36:36.155Z,12.14
2022-09-17T17:39:02.523Z,12.12
2022-09-17T17:41:28.844Z,12.03
2022-09-17T17:43:56.191Z,11.93
2022-09-17T17:46:23.388Z,11.96
2022-09-17T17:48:50.851Z,11.92
2022-09-17T17:51:17.577Z,11.82
2022-09-17T17:53:44.768Z,11.84
2022-09-17T17:56:11.996Z,11.81
2022-09-17T17:58:39.378Z,11.81
2022-09-17T18:01:14.391Z,11.69
2022-09-17T18:03:41.066Z,11.78
2022-09-17T18:06:08.080Z,11.77
2022-09-17T18:08:39.394Z,11.77
2022-09-17T18:11:07.731Z,11.76
2022-09-17T18:13:37.741Z,11.76
2022-09-17T18:16:06.195Z,11.73
2022-09-17T18:18:43.557Z,11.70
2022-09-17T18:21:16.668Z,11.68
2022-09-17T18:23:43.477Z,11.67
2022-09-17T18:26:13.185Z,11.60
2022-09-17T18:28:40.056Z,11.58
2022-09-17T18:31:08.419Z,11.62
2022-09-17T18:33:35.892Z,11.60
2022-09-17T18:36:04.834Z,11.59
2022-09-17T18:38:32.580Z,11.58
2022-09-17T18:41:06.427Z,11.54
2022-09-17T18:43:33.810Z,11.56
2022-09-17T18:46:00.565Z,11.52
2022-09-17T18:48:27.799Z,11.46
2022-09-17T18:51:06.605Z,11.48
2022-09-17T18:53:35.340Z,11.41
2022-09-17T18:56:17.723Z,11.45
2022-09-17T18:58:49.210Z,11.36
2022-09-17T19:01:16.261Z,11.41
2022-09-17T19:03:43.011Z,11.21
2022-09-17T19:06:11.649Z,11.32
2022-09-17T19:08:38.548Z,11.32
2022-09-17T19:11:05.472Z,11.23
2022-09-17T19:13:40.316Z,11.26
2022-09-17T19:16:08.141Z,11.19
2022-09-17T19:18:34.615Z,11.16
2022-09-17T19:21:02.864Z,11.14
2022-09-17T19:23:29.660Z,11.11
2022-09-17T19:25:56.018Z,11.08
2022-09-17T19:28:22.845Z,11.05
2022-09-17T19:30:50.251Z,11.00
2022-09-17T19:33:16.794Z,10.98
2022-09-17T19:35:43.141Z,11.02
2022-09-17T19:38:13.218Z,11.02
2022-09-17T19:40:39.844Z,11.10
2022-09-17T19:43:06.211Z,11.11
2022-09-17T19:45:32.597Z,11.14
2022-09-17T19:47:58.903Z,11.11
2022-09-17T19:50:25.200Z,11.16
2022-09-17T19:52:51.523Z,11.13
2022-09-17T19:55:17.849Z,11.17
2022-09-17T19:57:44.155Z,11.14
2022-09-17T20:00:10.960Z,11.14
2022-09-17T20:02:38.243Z,11.11
2022-09-17T20:05:04.950Z,11.07
2022-09-17T20:07:31.315Z,11.14
2022-09-17T20:09:57.637Z,11.06
2022-09-17T20:12:23.969Z,11.11
2022-09-17T20:14:50.383Z,11.11
2022-09-17T20:17:17.075Z,11.06
2022-09-17T20:19:43.386Z,11.14
2022-09-17T20:22:09.769Z,11.14
2022-09-17T20:24:36.080Z,11.07
2022-09-17T20:27:02.439Z,11.12
2022-09-17T20:29:28.802Z,11.06
2022-09-17T20:31:55.169Z,11.14
2022-09-17T20:34:21.500Z,11.15
2022-09-17T20:36:47.926Z,11.16
2022-09-17T20:39:22.771Z,11.16
2022-09-17T20:41:49.517Z,11.15
2022-09-17T20:44:15.846Z,11.18
2022-09-17T20:46:42.190Z,11.18
2022-09-17T20:49:08.654Z,11.15
2022-09-17T20:51:35.177Z,11.21
2022-09-17T20:54:02.014Z,11.19
2022-09-17T20:56:31.498Z,11.12
2022-09-17T20:59:04.026Z,11.17
2022-09-17T21:01:31.420Z,11.12
2022-09-17T21:03:58.979Z,11.13
2022-09-17T21:06:27.913Z,11.20
2022-09-17T21:08:55.036Z,11.18
2022-09-17T21:11:23.689Z,11.14
2022-09-17T21:13:50.290Z,11.15
2022-09-17T21:16:17.378Z,11.22
2022-09-17T21:18:44.708Z,11.23
2022-09-17T21:21:13.535Z,11.23
2022-09-17T21:23:41.001Z,11.20
2022-09-17T21:26:13.230Z,11.20
2022-09-17T21:28:41.259Z,11.15
2022-09-17T21:31:10.653Z,11.09
2022-09-17T21:33:37.294Z,10.96
2022-09-17T21:36:09.073Z,10.93
2022-09-17T21:38:35.975Z,10.94
2022-09-17T21:41:05.058Z,10.83
2022-09-17T21:43:31.661Z,10.82
2022-09-17T21:46:07.089Z,10.74
2022-09-17T21:48:36.111Z,10.69
2022-09-17T21:51:10.238Z,10.68
2022-09-17T21:53:36.674Z,10.64
2022-09-17T21:56:11.331Z,10.69
2022-09-17T21:58:38.492Z,10.72
2022-09-17T22:01:13.621Z,10.72
2022-09-17T22:03:41.162Z,10.75
2022-09-17T22:06:19.638Z,10.74
2022-09-17T22:08:46.694Z,10.72
2022-09-17T22:11:15.298Z,10.64
2022-09-17T22:13:42.313Z,10.61
2022-09-17T22:16:09.822Z,10.63
2022-09-17T22:18:37.540Z,10.60
2022-09-17T22:21:18.687Z,10.57
2022-09-17T22:23:45.141Z,10.57
2022-09-17T22:26:11.749Z,10.58
2022-09-17T22:28:38.372Z,10.58
2022-09-17T22:31:07.566Z,10.61
2022-09-17T22:33:36.053Z,10.51
2022-09-17T22:36:08.162Z,10.63
2022-09-17T22:38:34.950Z,10.64
2022-09-17T22:41:24.421Z,10.61
2022-09-17T22:44:01.159Z,10.61
2022-09-17T22:46:29.991Z,10.55
2022-09-17T22:48:57.137Z,10.60
2022-09-17T22:51:25.012Z,10.57
2022-09-17T22:53:51.562Z,10.66
2022-09-17T22:56:20.650Z,10.62
2022-09-17T22:58:48.007Z,10.70
2022-09-17T23:01:21.027Z,10.71
2022-09-17T23:03:48.909Z,10.73
2022-09-17T23:06:18.438Z,10.73
2022-09-17T23:08:45.047Z,10.74
2022-09-17T23:11:38.273Z,10.74
2022-09-17T23:14:10.756Z,10.73
2022-09-17T23:16:43.093Z,10.69
2022-09-17T23:19:10.439Z,10.69
2022-09-17T23:21:37.946Z,10.64
2022-09-17T23:24:04.423Z,10.53
2022-09-17T23:26:30.819Z,10.54
2022-09-17T23:29:01.142Z,10.45
2022-09-17T23:31:30.568Z,10.50
2022-09-17T23:33:57.200Z,10.55
2022-09-17T23:36:29.545Z,10.57
2022-09-17T23:38:57.334Z,10.57
2022-09-17T23:41:31.798Z,10.51
2022-09-17T23:44:00.893Z,10.58
2022-09-17T23:46:29.628Z,10.60
2022-09-17T23:48:55.997Z,10.52
2022-09-17T23:51:24.474Z,10.58
2022-09-17T23:53:51.437Z,10.60
2022-09-17T23:56:20.598Z,10.60
2022-09-17T23:58:47.902Z,10.58
